sensor_id;sensor_type;location;lat;lon;timestamp;pressure;altitude;pressure_sealevel;temperature;humidity
21361;BME280;10839;43.206;23.550;2023-04-28T00:02:08;97468.31;;;9.88;44.70
21361;BME280;10839;43.206;23.550;2023-04-28T00:04:33;97461.16;;;9.80;45.15
21361;BME280;10839;43.206;23.550;2023-04-28T00:06:59;97471.91;;;9.95;45.03
21361;BME280;10839;43.206;23.550;2023-04-28T00:09:25;97471.19;;;9.86;44.75
21361;BME280;10839;43.206;23.550;2023-04-28T00:11:51;97469.41;;;9.79;44.95
21361;BME280;10839;43.206;23.550;2023-04-28T00:14:16;97457.19;;;9.91;44.56
21361;BME280;10839;43.206;23.550;2023-04-28T00:16:42;97468.50;;;9.86;44.78
21361;BME280;10839;43.206;23.550;2023-04-28T00:19:08;97455.06;;;9.86;44.40
21361;BME280;10839;43.206;23.550;2023-04-28T00:21:34;97464.19;;;9.40;45.22
21361;BME280;10839;43.206;23.550;2023-04-28T00:24:00;97456.19;;;9.55;44.94
21361;BME280;10839;43.206;23.550;2023-04-28T00:26:26;97462.50;;;9.62;44.75
21361;BME280;10839;43.206;23.550;2023-04-28T00:28:51;97467.63;;;9.71;44.36
21361;BME280;10839;43.206;23.550;2023-04-28T00:31:17;97459.03;;;9.53;45.16
21361;BME280;10839;43.206;23.550;2023-04-28T00:33:43;97467.97;;;9.68;44.67
21361;BME280;10839;43.206;23.550;2023-04-28T00:36:09;97466.06;;;9.40;45.35
21361;BME280;10839;43.206;23.550;2023-04-28T00:38:36;97461.91;;;9.52;45.53
21361;BME280;10839;43.206;23.550;2023-04-28T00:41:02;97474.34;;;9.30;46.27
21361;BME280;10839;43.206;23.550;2023-04-28T00:43:28;97473.63;;;9.36;46.48
21361;BME280;10839;43.206;23.550;2023-04-28T00:45:54;97466.34;;;9.22;46.92
21361;BME280;10839;43.206;23.550;2023-04-28T00:48:20;97472.31;;;9.10;46.78
21361;BME280;10839;43.206;23.550;2023-04-28T00:50:48;97465.84;;;8.96;47.88
21361;BME280;10839;43.206;23.550;2023-04-28T00:53:14;97469.53;;;8.95;47.96
21361;BME280;10839;43.206;23.550;2023-04-28T00:55:41;97485.78;;;9.01;48.29
21361;BME280;10839;43.206;23.550;2023-04-28T00:58:07;97472.78;;;9.13;47.77
21361;BME280;10839;43.206;23.550;2023-04-28T01:00:33;97478.16;;;9.13;47.42
21361;BME280;10839;43.206;23.550;2023-04-28T01:03:00;97474.69;;;9.04;47.59
21361;BME280;10839;43.206;23.550;2023-04-28T01:05:28;97467.75;;;9.10;47.19
21361;BME280;10839;43.206;23.550;2023-04-28T01:07:55;97465.03;;;9.18;47.05
21361;BME280;10839;43.206;23.550;2023-04-28T01:10:21;97474.34;;;9.30;47.02
21361;BME280;10839;43.206;23.550;2023-04-28T01:12:47;97479.81;;;9.14;47.57
21361;BME280;10839;43.206;23.550;2023-04-28T01:15:17;97482.09;;;9.25;47.86
21361;BME280;10839;43.206;23.550;2023-04-28T01:17:46;97479.22;;;9.49;47.65
21361;BME280;10839;43.206;23.550;2023-04-28T01:20:13;97481.53;;;9.07;48.50
21361;BME280;10839;43.206;23.550;2023-04-28T01:22:40;97472.31;;;9.10;47.96
21361;BME280;10839;43.206;23.550;2023-04-28T01:25:07;97470.75;;;9.15;48.02
21361;BME280;10839;43.206;23.550;2023-04-28T01:27:33;97481.03;;;9.12;48.13
21361;BME280;10839;43.206;23.550;2023-04-28T01:30:00;97477.94;;;9.23;48.00
21361;BME280;10839;43.206;23.550;2023-04-28T01:32:25;97478.41;;;9.26;48.09
21361;BME280;10839;43.206;23.550;2023-04-28T01:34:51;97470.50;;;9.02;48.57
21361;BME280;10839;43.206;23.550;2023-04-28T01:37:17;97468.34;;;8.97;48.54
21361;BME280;10839;43.206;23.550;2023-04-28T01:39:43;97468.84;;;9.01;48.33
21361;BME280;10839;43.206;23.550;2023-04-28T01:42:08;97463.47;;;9.01;48.28
21361;BME280;10839;43.206;23.550;2023-04-28T01:44:34;97470.84;;;8.99;47.86
21361;BME280;10839;43.206;23.550;2023-04-28T01:47:00;97471.56;;;8.93;48.77
21361;BME280;10839;43.206;23.550;2023-04-28T01:49:26;97476.38;;;8.75;49.55
21361;BME280;10839;43.206;23.550;2023-04-28T01:51:52;97476.47;;;8.89;48.84
21361;BME280;10839;43.206;23.550;2023-04-28T01:54:18;97481.69;;;8.83;49.19
21361;BME280;10839;43.206;23.550;2023-04-28T01:56:44;97485.78;;;8.71;49.60
21361;BME280;10839;43.206;23.550;2023-04-28T01:59:13;97474.06;;;8.64;49.75
21361;BME280;10839;43.206;23.550;2023-04-28T02:01:38;97480.63;;;8.61;50.22
21361;BME280;10839;43.206;23.550;2023-04-28T02:04:04;97483.44;;;8.68;49.99
21361;BME280;10839;43.206;23.550;2023-04-28T02:06:33;97488.78;;;8.76;49.02
21361;BME280;10839;43.206;23.550;2023-04-28T02:08:59;97477.28;;;8.90;48.17
21361;BME280;10839;43.206;23.550;2023-04-28T02:11:25;97484.69;;;8.88;47.54
21361;BME280;10839;43.206;23.550;2023-04-28T02:13:54;97489.66;;;8.99;47.43
21361;BME280;10839;43.206;23.550;2023-04-28T02:16:20;97492.06;;;8.86;48.23
21361;BME280;10839;43.206;23.550;2023-04-28T02:18:49;97495.78;;;8.85;48.91
21361;BME280;10839;43.206;23.550;2023-04-28T02:21:15;97498.41;;;8.93;49.37
21361;BME280;10839;43.206;23.550;2023-04-28T02:23:44;97499.47;;;8.84;50.03
21361;BME280;10839;43.206;23.550;2023-04-28T02:26:10;97503.16;;;8.83;50.23
21361;BME280;10839;43.206;23.550;2023-04-28T02:28:36;97503.53;;;8.80;50.17
21361;BME280;10839;43.206;23.550;2023-04-28T02:31:09;97520.41;;;8.42;51.15
21361;BME280;10839;43.206;23.550;2023-04-28T02:33:36;97520.59;;;8.48;51.12
21361;BME280;10839;43.206;23.550;2023-04-28T02:36:03;97519.72;;;8.48;50.96
21361;BME280;10839;43.206;23.550;2023-04-28T02:38:29;97522.38;;;8.56;50.80
21361;BME280;10839;43.206;23.550;2023-04-28T02:41:00;97528.13;;;8.37;50.80
21361;BME280;10839;43.206;23.550;2023-04-28T02:43:27;97533.31;;;8.46;50.43
21361;BME280;10839;43.206;23.550;2023-04-28T02:45:53;97530.13;;;8.51;50.11
21361;BME280;10839;43.206;23.550;2023-04-28T02:48:19;97525.09;;;8.48;49.24
21361;BME280;10839;43.206;23.550;2023-04-28T02:50:45;97527.34;;;8.75;48.53
21361;BME280;10839;43.206;23.550;2023-04-28T02:53:11;97526.22;;;8.61;48.66
21361;BME280;10839;43.206;23.550;2023-04-28T02:55:37;97536.38;;;8.74;48.27
21361;BME280;10839;43.206;23.550;2023-04-28T02:58:03;97524.88;;;8.57;48.26
21361;BME280;10839;43.206;23.550;2023-04-28T03:00:29;97539.34;;;8.87;47.52
21361;BME280;10839;43.206;23.550;2023-04-28T03:02:55;97543.00;;;8.94;47.02
21361;BME280;10839;43.206;23.550;2023-04-28T03:05:21;97537.50;;;8.87;47.18
21361;BME280;10839;43.206;23.550;2023-04-28T03:07:48;97546.97;;;9.06;46.75
21361;BME280;10839;43.206;23.550;2023-04-28T03:10:14;97552.75;;;8.87;46.88
21361;BME280;10839;43.206;23.550;2023-04-28T03:12:40;97555.44;;;8.87;47.36
21361;BME280;10839;43.206;23.550;2023-04-28T03:15:06;97548.03;;;8.97;46.67
21361;BME280;10839;43.206;23.550;2023-04-28T03:17:35;97557.19;;;8.80;46.61
21361;BME280;10839;43.206;23.550;2023-04-28T03:20:04;97555.13;;;8.82;47.15
21361;BME280;10839;43.206;23.550;2023-04-28T03:22:30;97556.78;;;8.91;46.63
21361;BME280;10839;43.206;23.550;2023-04-28T03:24:56;97567.19;;;8.86;47.72
21361;BME280;10839;43.206;23.550;2023-04-28T03:27:25;97561.13;;;8.92;48.07
21361;BME280;10839;43.206;23.550;2023-04-28T03:29:53;97562.91;;;8.69;48.81
21361;BME280;10839;43.206;23.550;2023-04-28T03:32:20;97562.59;;;8.64;48.83
21361;BME280;10839;43.206;23.550;2023-04-28T03:34:45;97563.19;;;8.82;47.48
21361;BME280;10839;43.206;23.550;2023-04-28T03:37:11;97568.19;;;8.93;47.89
21361;BME280;10839;43.206;23.550;2023-04-28T03:39:38;97577.31;;;8.76;48.53
21361;BME280;10839;43.206;23.550;2023-04-28T03:42:04;97573.19;;;8.96;47.22
21361;BME280;10839;43.206;23.550;2023-04-28T03:44:36;97575.91;;;8.88;48.51
21361;BME280;10839;43.206;23.550;2023-04-28T03:47:03;97590.28;;;9.03;48.90
21361;BME280;10839;43.206;23.550;2023-04-28T03:49:29;97591.94;;;9.04;49.56
21361;BME280;10839;43.206;23.550;2023-04-28T03:51:56;97581.84;;;9.14;49.91
21361;BME280;10839;43.206;23.550;2023-04-28T03:54:21;97599.00;;;10.11;48.25
21361;BME280;10839;43.206;23.550;2023-04-28T03:56:48;97594.78;;;10.98;46.28
21361;BME280;10839;43.206;23.550;2023-04-28T03:59:15;97594.09;;;12.45;42.04
21361;BME280;10839;43.206;23.550;2023-04-28T04:01:41;97604.59;;;13.23;41.16
21361;BME280;10839;43.206;23.550;2023-04-28T04:04:07;97605.81;;;14.34;38.13
21361;BME280;10839;43.206;23.550;2023-04-28T04:06:33;97607.72;;;15.56;36.04
21361;BME280;10839;43.206;23.550;2023-04-28T04:09:00;97608.06;;;16.48;34.13
21361;BME280;10839;43.206;23.550;2023-04-28T04:11:25;97616.22;;;17.15;33.20
21361;BME280;10839;43.206;23.550;2023-04-28T04:13:52;97599.41;;;18.09;31.48
21361;BME280;10839;43.206;23.550;2023-04-28T04:16:20;97610.00;;;17.51;32.42
21361;BME280;10839;43.206;23.550;2023-04-28T04:18:47;97601.47;;;18.54;30.61
21361;BME280;10839;43.206;23.550;2023-04-28T04:21:22;97604.38;;;19.40;29.25
21361;BME280;10839;43.206;23.550;2023-04-28T04:23:50;97610.50;;;19.59;29.20
21361;BME280;10839;43.206;23.550;2023-04-28T04:26:15;97610.13;;;19.67;28.85
21361;BME280;10839;43.206;23.550;2023-04-28T04:28:41;97604.50;;;20.53;28.04
21361;BME280;10839;43.206;23.550;2023-04-28T04:31:09;97624.75;;;21.56;26.41
21361;BME280;10839;43.206;23.550;2023-04-28T04:33:35;97620.38;;;21.17;26.86
21361;BME280;10839;43.206;23.550;2023-04-28T04:36:03;97619.34;;;20.90;27.48
21361;BME280;10839;43.206;23.550;2023-04-28T04:38:30;97625.50;;;21.13;27.27
21361;BME280;10839;43.206;23.550;2023-04-28T04:41:01;97629.94;;;21.52;26.76
21361;BME280;10839;43.206;23.550;2023-04-28T04:43:26;97627.06;;;22.50;25.67
21361;BME280;10839;43.206;23.550;2023-04-28T04:45:53;97627.66;;;23.11;24.92
21361;BME280;10839;43.206;23.550;2023-04-28T04:48:19;97628.91;;;22.45;26.00
21361;BME280;10839;43.206;23.550;2023-04-28T04:50:45;97631.09;;;22.43;25.69
21361;BME280;10839;43.206;23.550;2023-04-28T04:53:11;97633.19;;;23.21;25.08
21361;BME280;10839;43.206;23.550;2023-04-28T04:55:38;97645.31;;;23.56;24.83
21361;BME280;10839;43.206;23.550;2023-04-28T04:58:04;97633.91;;;23.38;24.49
21361;BME280;10839;43.206;23.550;2023-04-28T05:00:49;97640.81;;;24.59;23.34
21361;BME280;10839;43.206;23.550;2023-04-28T05:03:15;97635.53;;;24.27;23.60
21361;BME280;10839;43.206;23.550;2023-04-28T05:05:41;97636.69;;;24.56;23.37
21361;BME280;10839;43.206;23.550;2023-04-28T05:08:12;97642.03;;;25.23;23.49
21361;BME280;10839;43.206;23.550;2023-04-28T05:10:38;97645.59;;;25.49;22.99
21361;BME280;10839;43.206;23.550;2023-04-28T05:13:04;97644.41;;;24.64;23.48
21361;BME280;10839;43.206;23.550;2023-04-28T05:15:30;97645.56;;;25.79;22.40
21361;BME280;10839;43.206;23.550;2023-04-28T05:18:21;97642.84;;;25.44;22.38
21361;BME280;10839;43.206;23.550;2023-04-28T05:20:47;97636.78;;;25.67;22.31
21361;BME280;10839;43.206;23.550;2023-04-28T05:23:16;97635.09;;;25.76;22.78
21361;BME280;10839;43.206;23.550;2023-04-28T05:25:41;97639.72;;;26.64;21.77
21361;BME280;10839;43.206;23.550;2023-04-28T05:28:11;97644.03;;;26.31;21.99
21361;BME280;10839;43.206;23.550;2023-04-28T05:30:37;97634.81;;;27.33;20.73
21361;BME280;10839;43.206;23.550;2023-04-28T05:33:02;97642.50;;;27.41;20.34
21361;BME280;10839;43.206;23.550;2023-04-28T05:35:28;97641.34;;;27.47;20.74
21361;BME280;10839;43.206;23.550;2023-04-28T05:37:57;97632.78;;;28.25;20.00
21361;BME280;10839;43.206;23.550;2023-04-28T05:40:24;97642.31;;;27.61;20.08
21361;BME280;10839;43.206;23.550;2023-04-28T05:42:51;97630.50;;;27.17;20.71
21361;BME280;10839;43.206;23.550;2023-04-28T05:45:16;97631.28;;;28.56;19.83
21361;BME280;10839;43.206;23.550;2023-04-28T05:47:42;97640.38;;;28.38;19.95
21361;BME280;10839;43.206;23.550;2023-04-28T05:50:10;97632.06;;;27.91;20.02
21361;BME280;10839;43.206;23.550;2023-04-28T05:52:35;97641.28;;;27.52;20.50
21361;BME280;10839;43.206;23.550;2023-04-28T05:55:02;97636.94;;;27.99;19.89
21361;BME280;10839;43.206;23.550;2023-04-28T05:57:30;97633.31;;;28.69;19.62
21361;BME280;10839;43.206;23.550;2023-04-28T05:59:56;97639.38;;;28.71;19.43
21361;BME280;10839;43.206;23.550;2023-04-28T06:02:22;97639.06;;;28.07;19.83
21361;BME280;10839;43.206;23.550;2023-04-28T06:04:47;97647.22;;;27.98;19.50
21361;BME280;10839;43.206;23.550;2023-04-28T06:07:14;97639.50;;;27.67;20.02
21361;BME280;10839;43.206;23.550;2023-04-28T06:09:41;97643.66;;;27.93;19.59
21361;BME280;10839;43.206;23.550;2023-04-28T06:12:07;97635.78;;;28.05;19.55
21361;BME280;10839;43.206;23.550;2023-04-28T06:14:33;97649.53;;;27.29;20.24
21361;BME280;10839;43.206;23.550;2023-04-28T06:17:02;97647.13;;;27.80;20.04
21361;BME280;10839;43.206;23.550;2023-04-28T06:19:28;97641.19;;;27.62;20.22
21361;BME280;10839;43.206;23.550;2023-04-28T06:21:54;97643.47;;;27.84;19.79
21361;BME280;10839;43.206;23.550;2023-04-28T06:24:20;97639.69;;;27.13;20.55
21361;BME280;10839;43.206;23.550;2023-04-28T06:26:47;97653.31;;;27.95;19.84
21361;BME280;10839;43.206;23.550;2023-04-28T06:29:13;97649.44;;;27.39;20.56
21361;BME280;10839;43.206;23.550;2023-04-28T06:31:39;97651.41;;;26.46;21.44
21361;BME280;10839;43.206;23.550;2023-04-28T06:34:05;97646.34;;;26.63;21.27
21361;BME280;10839;43.206;23.550;2023-04-28T06:36:32;97649.78;;;26.40;21.35
21361;BME280;10839;43.206;23.550;2023-04-28T06:38:58;97652.06;;;26.28;21.59
21361;BME280;10839;43.206;23.550;2023-04-28T06:41:24;97646.91;;;26.06;21.68
21361;BME280;10839;43.206;23.550;2023-04-28T06:43:51;97651.59;;;26.70;21.48
21361;BME280;10839;43.206;23.550;2023-04-28T06:46:24;97652.13;;;26.13;21.36
21361;BME280;10839;43.206;23.550;2023-04-28T06:48:50;97640.59;;;25.76;22.06
21361;BME280;10839;43.206;23.550;2023-04-28T06:51:16;97644.50;;;25.55;22.21
21361;BME280;10839;43.206;23.550;2023-04-28T06:53:42;97653.28;;;25.87;22.15
21361;BME280;10839;43.206;23.550;2023-04-28T06:56:08;97650.56;;;25.72;22.24
21361;BME280;10839;43.206;23.550;2023-04-28T06:58:34;97646.16;;;25.56;22.38
21361;BME280;10839;43.206;23.550;2023-04-28T07:01:00;97647.53;;;25.63;22.33
21361;BME280;10839;43.206;23.550;2023-04-28T07:03:25;97650.16;;;26.18;22.23
21361;BME280;10839;43.206;23.550;2023-04-28T07:05:52;97652.47;;;25.76;22.37
21361;BME280;10839;43.206;23.550;2023-04-28T07:08:18;97647.19;;;25.90;22.62
21361;BME280;10839;43.206;23.550;2023-04-28T07:10:44;97647.00;;;25.16;23.12
21361;BME280;10839;43.206;23.550;2023-04-28T07:13:09;97648.91;;;25.51;22.78
21361;BME280;10839;43.206;23.550;2023-04-28T07:15:35;97653.22;;;26.07;22.28
21361;BME280;10839;43.206;23.550;2023-04-28T07:18:01;97652.75;;;25.70;23.08
21361;BME280;10839;43.206;23.550;2023-04-28T07:20:27;97656.44;;;26.29;22.50
21361;BME280;10839;43.206;23.550;2023-04-28T07:22:53;97651.00;;;25.99;22.85
21361;BME280;10839;43.206;23.550;2023-04-28T07:25:19;97653.34;;;25.62;22.76
21361;BME280;10839;43.206;23.550;2023-04-28T07:27:45;97642.84;;;25.44;23.33
21361;BME280;10839;43.206;23.550;2023-04-28T07:30:11;97653.34;;;25.57;22.75
21361;BME280;10839;43.206;23.550;2023-04-28T07:32:37;97652.78;;;25.35;23.65
21361;BME280;10839;43.206;23.550;2023-04-28T07:35:03;97649.97;;;25.85;23.38
21361;BME280;10839;43.206;23.550;2023-04-28T07:37:29;97653.00;;;25.83;22.73
21361;BME280;10839;43.206;23.550;2023-04-28T07:39:55;97653.88;;;25.13;23.58
21361;BME280;10839;43.206;23.550;2023-04-28T07:42:21;97657.16;;;25.25;23.41
21361;BME280;10839;43.206;23.550;2023-04-28T07:44:47;97659.94;;;25.61;23.42
21361;BME280;10839;43.206;23.550;2023-04-28T07:47:13;97643.38;;;24.90;23.32
21361;BME280;10839;43.206;23.550;2023-04-28T07:49:39;97653.72;;;24.43;24.46
21361;BME280;10839;43.206;23.550;2023-04-28T07:52:05;97651.66;;;25.15;23.31
21361;BME280;10839;43.206;23.550;2023-04-28T07:54:31;97644.41;;;24.64;23.65
21361;BME280;10839;43.206;23.550;2023-04-28T07:56:57;97651.13;;;25.18;23.76
21361;BME280;10839;43.206;23.550;2023-04-28T07:59:22;97650.56;;;24.91;24.17
21361;BME280;10839;43.206;23.550;2023-04-28T08:01:48;97646.13;;;24.70;23.88
21361;BME280;10839;43.206;23.550;2023-04-28T08:04:14;97651.91;;;25.79;23.39
21361;BME280;10839;43.206;23.550;2023-04-28T08:06:40;97652.16;;;25.93;22.62
21361;BME280;10839;43.206;23.550;2023-04-28T08:09:06;97650.28;;;25.08;23.30
21361;BME280;10839;43.206;23.550;2023-04-28T08:11:32;97654.44;;;25.51;23.55
21361;BME280;10839;43.206;23.550;2023-04-28T08:13:58;97643.13;;;25.47;23.02
21361;BME280;10839;43.206;23.550;2023-04-28T08:16:28;97650.84;;;25.05;23.60
21361;BME280;10839;43.206;23.550;2023-04-28T08:18:55;97646.72;;;25.38;23.96
21361;BME280;10839;43.206;23.550;2023-04-28T08:21:21;97651.69;;;25.46;23.55
21361;BME280;10839;43.206;23.550;2023-04-28T08:23:47;97643.84;;;25.98;23.02
21361;BME280;10839;43.206;23.550;2023-04-28T08:26:13;97645.88;;;25.62;23.08
21361;BME280;10839;43.206;23.550;2023-04-28T08:28:39;97651.66;;;25.56;23.36
21361;BME280;10839;43.206;23.550;2023-04-28T08:31:05;97645.53;;;25.84;22.49
21361;BME280;10839;43.206;23.550;2023-04-28T08:33:30;97654.16;;;25.42;23.19
21361;BME280;10839;43.206;23.550;2023-04-28T08:35:56;97650.00;;;25.35;22.75
21361;BME280;10839;43.206;23.550;2023-04-28T08:38:22;97643.81;;;24.47;23.39
21361;BME280;10839;43.206;23.550;2023-04-28T08:40:50;97651.53;;;24.45;24.13
21361;BME280;10839;43.206;23.550;2023-04-28T08:43:16;97646.63;;;24.62;23.77
21361;BME280;10839;43.206;23.550;2023-04-28T08:45:43;97646.72;;;25.12;23.92
21361;BME280;10839;43.206;23.550;2023-04-28T08:48:18;97640.47;;;24.25;24.54
21361;BME280;10839;43.206;23.550;2023-04-28T08:50:52;97641.09;;;24.57;24.31
21361;BME280;10839;43.206;23.550;2023-04-28T08:53:24;97633.75;;;23.54;24.62
21361;BME280;10839;43.206;23.550;2023-04-28T08:55:55;97637.53;;;23.90;24.78
21361;BME280;10839;43.206;23.550;2023-04-28T08:58:23;97635.41;;;25.14;23.79
21361;BME280;10839;43.206;23.550;2023-04-28T09:00:51;97636.16;;;24.64;24.02
21361;BME280;10839;43.206;23.550;2023-04-28T09:03:17;97640.53;;;24.45;23.96
21361;BME280;10839;43.206;23.550;2023-04-28T09:05:43;97621.78;;;24.37;24.97
21361;BME280;10839;43.206;23.550;2023-04-28T09:08:09;97623.72;;;23.75;25.12
21361;BME280;10839;43.206;23.550;2023-04-28T09:10:37;97612.19;;;24.50;24.46
21361;BME280;10839;43.206;23.550;2023-04-28T09:13:03;97620.25;;;24.86;24.03
21361;BME280;10839;43.206;23.550;2023-04-28T09:15:36;97617.59;;;24.20;23.99
21361;BME280;10839;43.206;23.550;2023-04-28T09:18:05;97605.72;;;24.04;24.08
21361;BME280;10839;43.206;23.550;2023-04-28T09:20:33;97596.94;;;24.02;24.79
21361;BME280;10839;43.206;23.550;2023-04-28T09:25:55;97612.06;;;23.58;25.08
21361;BME280;10839;43.206;23.550;2023-04-28T09:28:22;97600.13;;;23.01;24.96
21361;BME280;10839;43.206;23.550;2023-04-28T09:30:48;97604.31;;;23.50;24.32
21361;BME280;10839;43.206;23.550;2023-04-28T09:33:14;97587.47;;;23.83;24.14
21361;BME280;10839;43.206;23.550;2023-04-28T09:35:44;97583.03;;;22.94;25.03
21361;BME280;10839;43.206;23.550;2023-04-28T09:38:12;97585.03;;;22.71;25.66
21361;BME280;10839;43.206;23.550;2023-04-28T09:41:00;97583.97;;;22.24;26.63
21361;BME280;10839;43.206;23.550;2023-04-28T09:43:31;97575.47;;;22.47;25.58
21361;BME280;10839;43.206;23.550;2023-04-28T09:46:02;97573.53;;;23.48;24.84
21361;BME280;10839;43.206;23.550;2023-04-28T09:50:57;97576.91;;;23.60;24.36
21361;BME280;10839;43.206;23.550;2023-04-28T09:53:24;97576.91;;;24.27;24.46
21361;BME280;10839;43.206;23.550;2023-04-28T09:55:52;97569.63;;;23.90;24.11
21361;BME280;10839;43.206;23.550;2023-04-28T09:58:21;97569.38;;;21.92;25.52
21361;BME280;10839;43.206;23.550;2023-04-28T10:00:52;97568.06;;;22.21;25.48
21361;BME280;10839;43.206;23.550;2023-04-28T10:03:21;97558.22;;;22.52;25.89
21361;BME280;10839;43.206;23.550;2023-04-28T10:05:49;97570.00;;;23.11;25.49
21361;BME280;10839;43.206;23.550;2023-04-28T10:08:19;97561.38;;;22.97;25.44
21361;BME280;10839;43.206;23.550;2023-04-28T10:10:50;97559.19;;;23.41;25.32
21361;BME280;10839;43.206;23.550;2023-04-28T10:13:20;97554.81;;;22.40;25.68
21361;BME280;10839;43.206;23.550;2023-04-28T10:15:50;97559.03;;;21.99;26.01
21361;BME280;10839;43.206;23.550;2023-04-28T10:18:21;97567.00;;;22.81;26.03
21361;BME280;10839;43.206;23.550;2023-04-28T10:20:50;97558.44;;;22.45;26.09
21361;BME280;10839;43.206;23.550;2023-04-28T10:23:35;97565.50;;;23.00;25.70
21361;BME280;10839;43.206;23.550;2023-04-28T10:26:09;97554.72;;;22.56;26.10
21361;BME280;10839;43.206;23.550;2023-04-28T10:28:36;97548.69;;;22.06;26.47
21361;BME280;10839;43.206;23.550;2023-04-28T10:33:36;97544.97;;;22.70;25.86
21361;BME280;10839;43.206;23.550;2023-04-28T10:36:02;97535.56;;;22.61;26.59
21361;BME280;10839;43.206;23.550;2023-04-28T10:38:29;97538.00;;;21.40;26.42
21361;BME280;10839;43.206;23.550;2023-04-28T10:40:55;97538.06;;;21.23;27.08
21361;BME280;10839;43.206;23.550;2023-04-28T10:43:39;97525.66;;;22.02;27.35
21361;BME280;10839;43.206;23.550;2023-04-28T10:46:07;97525.06;;;22.00;25.88
21361;BME280;10839;43.206;23.550;2023-04-28T10:56:28;97514.47;;;21.39;26.29
21361;BME280;10839;43.206;23.550;2023-04-28T10:58:57;97520.06;;;21.49;26.34
21361;BME280;10839;43.206;23.550;2023-04-28T11:01:28;97518.19;;;20.95;26.53
21361;BME280;10839;43.206;23.550;2023-04-28T11:03:57;97516.34;;;21.17;26.70
21361;BME280;10839;43.206;23.550;2023-04-28T11:06:31;97500.81;;;21.66;25.87
21361;BME280;10839;43.206;23.550;2023-04-28T11:12:05;97495.50;;;20.45;28.04
21361;BME280;10839;43.206;23.550;2023-04-28T11:14:38;97492.16;;;21.09;28.00
21361;BME280;10839;43.206;23.550;2023-04-28T11:17:08;97496.22;;;21.28;26.76
21361;BME280;10839;43.206;23.550;2023-04-28T11:19:41;97493.97;;;21.03;27.27
21361;BME280;10839;43.206;23.550;2023-04-28T11:22:18;97499.72;;;21.02;27.54
21361;BME280;10839;43.206;23.550;2023-04-28T11:25:01;97496.88;;;21.35;27.45
21361;BME280;10839;43.206;23.550;2023-04-28T11:27:29;97488.38;;;21.58;26.79
21361;BME280;10839;43.206;23.550;2023-04-28T11:29:55;97481.06;;;21.85;27.35
21361;BME280;10839;43.206;23.550;2023-04-28T11:32:29;97480.13;;;21.53;28.25
21361;BME280;10839;43.206;23.550;2023-04-28T11:34:55;97481.78;;;20.56;28.65
21361;BME280;10839;43.206;23.550;2023-04-28T11:37:21;97483.38;;;20.07;29.20
21361;BME280;10839;43.206;23.550;2023-04-28T11:39:47;97478.91;;;19.73;29.50
21361;BME280;10839;43.206;23.550;2023-04-28T11:42:14;97478.22;;;19.94;28.76
21361;BME280;10839;43.206;23.550;2023-04-28T11:44:40;97473.50;;;19.62;30.22
21361;BME280;10839;43.206;23.550;2023-04-28T11:47:06;97474.84;;;19.59;30.41
21361;BME280;10839;43.206;23.550;2023-04-28T11:49:42;97475.97;;;19.91;30.91
21361;BME280;10839;43.206;23.550;2023-04-28T11:52:08;97470.72;;;19.45;31.14
21361;BME280;10839;43.206;23.550;2023-04-28T11:54:35;97472.81;;;19.55;30.67
21361;BME280;10839;43.206;23.550;2023-04-28T11:57:02;97470.00;;;18.87;31.89
21361;BME280;10839;43.206;23.550;2023-04-28T11:59:34;97457.25;;;19.16;31.87
21361;BME280;10839;43.206;23.550;2023-04-28T12:02:05;97465.84;;;19.47;31.50
21361;BME280;10839;43.206;23.550;2023-04-28T12:04:39;97469.53;;;18.78;32.04
21361;BME280;10839;43.206;23.550;2023-04-28T12:07:06;97455.44;;;18.81;32.30
21361;BME280;10839;43.206;23.550;2023-04-28T12:09:36;97460.00;;;19.55;32.09
21361;BME280;10839;43.206;23.550;2023-04-28T12:12:05;97460.88;;;19.44;31.72
21361;BME280;10839;43.206;23.550;2023-04-28T12:14:52;97460.03;;;19.04;31.98
21361;BME280;10839;43.206;23.550;2023-04-28T12:17:29;97462.09;;;18.74;32.47
21361;BME280;10839;43.206;23.550;2023-04-28T12:19:57;97465.78;;;18.68;31.55
21361;BME280;10839;43.206;23.550;2023-04-28T12:22:24;97471.00;;;18.58;32.70
21361;BME280;10839;43.206;23.550;2023-04-28T12:27:29;97455.38;;;19.16;32.36
21361;BME280;10839;43.206;23.550;2023-04-28T12:29:56;97463.13;;;18.96;32.86
21361;BME280;10839;43.206;23.550;2023-04-28T12:32:39;97447.25;;;18.24;32.78
21361;BME280;10839;43.206;23.550;2023-04-28T12:35:06;97449.06;;;17.88;33.55
21361;BME280;10839;43.206;23.550;2023-04-28T12:37:32;97439.66;;;18.26;33.23
21361;BME280;10839;43.206;23.550;2023-04-28T12:39:58;97447.25;;;18.24;33.39
21361;BME280;10839;43.206;23.550;2023-04-28T12:42:24;97442.91;;;18.46;33.04
21361;BME280;10839;43.206;23.550;2023-04-28T12:44:51;97434.41;;;17.90;33.20
21361;BME280;10839;43.206;23.550;2023-04-28T12:47:16;97432.31;;;18.15;33.80
21361;BME280;10839;43.206;23.550;2023-04-28T12:49:43;97433.53;;;18.42;33.02
21361;BME280;10839;43.206;23.550;2023-04-28T12:52:09;97427.59;;;18.68;33.26
21361;BME280;10839;43.206;23.550;2023-04-28T12:54:35;97424.75;;;18.74;32.90
21361;BME280;10839;43.206;23.550;2023-04-28T12:57:03;97419.25;;;17.94;33.62
21361;BME280;10839;43.206;23.550;2023-04-28T12:59:30;97425.59;;;18.40;34.00
21361;BME280;10839;43.206;23.550;2023-04-28T13:01:56;97424.72;;;18.17;33.33
21361;BME280;10839;43.206;23.550;2023-04-28T13:04:22;97420.50;;;18.44;33.46
21361;BME280;10839;43.206;23.550;2023-04-28T13:06:48;97423.56;;;18.36;33.75
21361;BME280;10839;43.206;23.550;2023-04-28T13:09:14;97417.63;;;18.16;34.19
21361;BME280;10839;43.206;23.550;2023-04-28T13:11:41;97417.75;;;18.21;33.45
21361;BME280;10839;43.206;23.550;2023-04-28T13:14:07;97425.47;;;18.47;33.84
21361;BME280;10839;43.206;23.550;2023-04-28T13:16:34;97425.22;;;18.71;33.12